Time;durP1;ratioP1;P1;durP2;ratioP2;P2;SDS_P1;SDS_P2;PMS_P1;PMS_P2;Temp;Humidity;BMP_temperature;BMP_pressure;BME280_temperature;BME280_humidity;BME280_pressure;Samples;Min_cycle;Max_cycle;Signal;HPM_P1;HPM_P2
2022/06/26 00:00:59;;;;;;;4.77;3.27;;;13.90;71.90;;;;;;5066930;28;20179;-78
2022/06/26 00:03:28;;;;;;;7.87;3.80;;;13.90;71.70;;;;;;5068219;28;20180;-74
2022/06/26 00:05:56;;;;;;;5.13;2.93;;;14.10;71.00;;;;;;5052762;28;20173;-74
2022/06/26 00:08:25;;;;;;;5.70;3.23;;;14.20;71.50;;;;;;5056668;28;20229;-75
2022/06/26 00:10:53;;;;;;;4.73;3.53;;;14.50;70.80;;;;;;5063519;28;20222;-74
2022/06/26 00:13:21;;;;;;;7.13;3.97;;;14.70;70.30;;;;;;5065467;28;20183;-74
2022/06/26 00:15:48;;;;;;;5.50;3.33;;;14.80;69.80;;;;;;5067877;28;20290;-76
2022/06/26 00:18:16;;;;;;;7.83;3.60;;;15.00;68.50;;;;;;5073006;28;20604;-72
2022/06/26 00:20:44;;;;;;;4.30;2.90;;;15.10;67.30;;;;;;5057292;28;20188;-74
2022/06/26 00:23:12;;;;;;;4.17;3.13;;;15.20;67.00;;;;;;5067178;28;20188;-78
2022/06/26 00:25:39;;;;;;;5.33;3.20;;;15.30;67.00;;;;;;5066916;28;20190;-73
2022/06/26 00:28:07;;;;;;;5.37;3.17;;;15.30;66.30;;;;;;5073268;28;20215;-75
2022/06/26 00:30:37;;;;;;;6.97;3.13;;;15.40;66.50;;;;;;5061713;28;20267;-76
2022/06/26 00:33:04;;;;;;;5.07;2.73;;;15.50;66.80;;;;;;5078811;28;20183;-75
2022/06/26 00:35:32;;;;;;;5.77;2.93;;;15.60;66.10;;;;;;5064684;28;20268;-78
2022/06/26 00:37:59;;;;;;;6.37;3.10;;;15.70;65.70;;;;;;5055189;28;20679;-76
2022/06/26 00:40:26;;;;;;;3.83;3.07;;;15.80;65.30;;;;;;5059171;28;20582;-75
2022/06/26 00:42:54;;;;;;;5.13;2.67;;;16.00;65.00;;;;;;5064739;28;20551;-75
2022/06/26 00:45:21;;;;;;;5.53;2.67;;;16.00;64.50;;;;;;5064505;28;20642;-76
2022/06/26 00:47:49;;;;;;;7.43;2.63;;;16.00;64.70;;;;;;5068935;28;20235;-75
2022/06/26 00:50:16;;;;;;;5.27;2.70;;;16.00;64.30;;;;;;5067052;28;20186;-75
2022/06/26 00:52:45;;;;;;;5.67;2.83;;;16.10;64.40;;;;;;5067403;28;20675;-78
2022/06/26 00:55:12;;;;;;;9.00;2.60;;;16.30;64.30;;;;;;5068174;28;20209;-77
2022/06/26 00:57:40;;;;;;;5.87;2.67;;;16.30;63.30;;;;;;5079724;28;20189;-75
2022/06/26 01:00:10;;;;;;;4.33;2.40;;;16.30;62.70;;;;;;5065633;28;20190;-75
2022/06/26 01:02:38;;;;;;;3.97;2.73;;;16.30;63.00;;;;;;5065282;28;20846;-79
2022/06/26 01:05:06;;;;;;;4.07;2.60;;;16.50;63.30;;;;;;5059284;28;20186;-81
2022/06/26 01:07:34;;;;;;;5.93;2.60;;;16.60;62.90;;;;;;5074161;28;20286;-75
2022/06/26 01:10:06;;;;;;;3.80;2.47;;;16.60;62.40;;;;;;5072595;28;21918;-74
2022/06/26 01:12:34;;;;;;;2.93;2.40;;;16.70;62.50;;;;;;5071862;28;20191;-73
2022/06/26 01:15:02;;;;;;;7.40;2.30;;;16.80;62.60;;;;;;5071526;28;20242;-74
2022/06/26 01:17:29;;;;;;;3.57;2.43;;;17.00;62.30;;;;;;5068742;28;20194;-74
2022/06/26 01:19:57;;;;;;;4.70;2.23;;;17.00;61.50;;;;;;5060991;28;20178;-74
2022/06/26 01:22:29;;;;;;;2.93;2.30;;;17.10;61.20;;;;;;5078918;28;20604;-75
2022/06/26 01:24:56;;;;;;;4.77;2.10;;;17.10;60.80;;;;;;5073059;28;20637;-73
2022/06/26 01:27:24;;;;;;;3.13;2.40;;;17.30;61.30;;;;;;5073018;28;20697;-76
2022/06/26 01:29:52;;;;;;;6.13;2.50;;;17.60;60.30;;;;;;5060470;28;20638;-75
2022/06/26 01:32:19;;;;;;;4.03;2.30;;;17.80;59.70;;;;;;5078231;28;20199;-75
2022/06/26 01:34:47;;;;;;;3.73;2.23;;;17.80;57.70;;;;;;5054839;28;20697;-75
2022/06/26 01:37:15;;;;;;;3.07;2.33;;;17.90;57.80;;;;;;5052295;28;20195;-75
2022/06/26 01:39:42;;;;;;;4.87;2.30;;;18.10;58.30;;;;;;5053350;28;20241;-76
2022/06/26 01:42:10;;;;;;;4.23;2.20;;;18.20;57.50;;;;;;5058671;28;20189;-75
2022/06/26 01:44:37;;;;;;;3.27;2.17;;;18.20;57.50;;;;;;5055351;28;20266;-75
2022/06/26 01:47:04;;;;;;;9.10;2.27;;;18.10;56.90;;;;;;5066148;28;20183;-78
2022/06/26 01:49:33;;;;;;;4.30;1.90;;;18.20;56.60;;;;;;5064852;28;20681;-76
2022/06/26 01:52:00;;;;;;;5.10;2.03;;;18.20;57.00;;;;;;5063762;28;20553;-74
2022/06/26 01:54:28;;;;;;;5.43;2.23;;;18.30;56.60;;;;;;5068696;28;20206;-75
2022/06/26 01:56:55;;;;;;;4.67;2.40;;;18.20;57.30;;;;;;5071598;28;20185;-74
2022/06/26 01:59:23;;;;;;;5.53;2.17;;;18.40;56.20;;;;;;5069712;28;20187;-75
2022/06/26 02:01:50;;;;;;;5.00;2.13;;;18.40;56.30;;;;;;5064642;28;20704;-76
2022/06/26 02:04:18;;;;;;;6.67;2.13;;;18.30;56.30;;;;;;5063312;28;20219;-77
2022/06/26 02:06:46;;;;;;;3.50;1.93;;;18.40;55.50;;;;;;5068977;28;20190;-74
2022/06/26 02:13:36;;;;;;;4.97;2.50;;;18.40;56.20;;;;;;5072206;28;20282;-75
2022/06/26 02:14:46;;;;;;;3.30;2.17;;;18.80;55.30;;;;;;5076487;28;20318;-75
2022/06/26 02:17:13;;;;;;;2.73;1.90;;;18.80;55.40;;;;;;5071255;28;20179;-75
2022/06/26 02:19:41;;;;;;;4.73;2.20;;;18.80;55.10;;;;;;5073341;28;20539;-75
2022/06/26 02:22:08;;;;;;;5.80;2.00;;;18.70;55.70;;;;;;5065059;28;20195;-75
2022/06/26 02:24:36;;;;;;;2.90;1.90;;;18.80;55.60;;;;;;5074733;28;20187;-75
2022/06/26 02:27:04;;;;;;;5.90;2.23;;;18.80;55.10;;;;;;5069710;28;20228;-75
2022/06/26 02:29:31;;;;;;;3.37;2.00;;;18.80;54.80;;;;;;5068153;28;20187;-74
2022/06/26 02:31:59;;;;;;;3.27;1.90;;;18.80;55.00;;;;;;5069356;28;20202;-74
2022/06/26 02:34:26;;;;;;;3.30;2.10;;;18.90;53.80;;;;;;5062032;28;20219;-75
2022/06/26 02:36:53;;;;;;;2.77;1.60;;;19.00;53.80;;;;;;5067031;28;20551;-74
2022/06/26 02:39:21;;;;;;;2.57;1.50;;;19.10;53.80;;;;;;5066792;28;20187;-76
2022/06/26 02:41:48;;;;;;;2.37;1.70;;;19.00;53.40;;;;;;5065301;28;20660;-75
2022/06/26 02:44:16;;;;;;;3.90;2.10;;;19.20;52.70;;;;;;5070268;28;20683;-75
2022/06/26 02:46:44;;;;;;;5.30;1.93;;;19.20;52.70;;;;;;5064641;28;20240;-76
2022/06/26 02:49:11;;;;;;;2.70;2.20;;;19.30;52.50;;;;;;5076298;28;20199;-75
2022/06/26 02:51:39;;;;;;;3.10;2.10;;;19.20;52.20;;;;;;5066130;28;20215;-75
2022/06/26 02:54:06;;;;;;;3.47;2.10;;;19.20;53.00;;;;;;5069425;28;20179;-75
2022/06/26 02:56:34;;;;;;;3.77;2.03;;;19.20;52.40;;;;;;5065903;28;20188;-76
2022/06/26 02:59:01;;;;;;;3.17;1.40;;;19.30;52.70;;;;;;5064056;28;20214;-75
2022/06/26 03:01:29;;;;;;;6.57;2.10;;;19.40;49.60;;;;;;5060236;28;20288;-75
2022/06/26 03:03:56;;;;;;;6.53;2.40;;;19.60;50.10;;;;;;5068997;28;20188;-75
2022/06/26 03:06:24;;;;;;;2.87;1.63;;;19.60;50.00;;;;;;5061108;28;20553;-76
2022/06/26 03:08:51;;;;;;;4.47;1.60;;;19.60;49.00;;;;;;5069528;28;20175;-74
2022/06/26 03:11:19;;;;;;;3.10;1.80;;;19.50;48.30;;;;;;5065935;28;20179;-76
2022/06/26 03:13:46;;;;;;;3.10;1.70;;;19.60;49.10;;;;;;5072475;28;20702;-76
2022/06/26 03:16:14;;;;;;;6.07;2.23;;;19.80;48.30;;;;;;5069610;28;20268;-76
2022/06/26 03:18:41;;;;;;;4.40;2.07;;;20.00;48.40;;;;;;5065842;28;20180;-77
2022/06/26 03:21:08;;;;;;;5.83;1.80;;;20.20;48.20;;;;;;5070228;28;20194;-75
2022/06/26 03:26:22;;;;;;;1.90;1.40;;;20.30;46.50;;;;;;5061002;28;20272;-75
2022/06/26 03:28:50;;;;;;;1.77;1.43;;;20.40;45.40;;;;;;5067764;28;20194;-75
2022/06/26 03:31:17;;;;;;;2.03;1.40;;;20.70;44.30;;;;;;5072941;28;20179;-75
2022/06/26 03:33:45;;;;;;;2.80;1.53;;;20.80;44.30;;;;;;5068079;28;20554;-75
2022/06/26 03:36:12;;;;;;;2.37;1.50;;;20.80;45.70;;;;;;5071050;28;20309;-75
2022/06/26 03:38:40;;;;;;;4.90;1.90;;;21.30;44.90;;;;;;5073344;28;20624;-75
2022/06/26 03:41:07;;;;;;;4.80;2.17;;;21.40;44.70;;;;;;5072630;28;20525;-74
2022/06/26 03:43:35;;;;;;;3.17;1.80;;;21.70;44.20;;;;;;5069566;28;20682;-75
2022/06/26 03:46:02;;;;;;;2.90;1.70;;;22.00;43.00;;;;;;5074544;28;20199;-77
2022/06/26 03:48:31;;;;;;;5.30;1.77;;;22.00;42.00;;;;;;5076662;28;20558;-79
2022/06/26 03:50:59;;;;;;;3.57;2.13;;;21.60;42.80;;;;;;5068853;28;20179;-79
2022/06/26 03:53:26;;;;;;;3.40;1.43;;;21.30;43.20;;;;;;5063666;28;20194;-76
2022/06/26 03:55:53;;;;;;;2.87;1.50;;;21.80;41.80;;;;;;5061044;28;20875;-77
2022/06/26 03:58:21;;;;;;;2.83;1.50;;;21.80;41.90;;;;;;5075259;28;20187;-78
2022/06/26 04:00:49;;;;;;;9.47;1.50;;;22.20;41.50;;;;;;5073175;28;20575;-76
2022/06/26 04:03:17;;;;;;;5.30;1.47;;;22.10;41.90;;;;;;5056478;28;20317;-74
2022/06/26 04:05:44;;;;;;;3.20;1.70;;;21.80;40.90;;;;;;5074631;28;20228;-77
2022/06/26 04:08:12;;;;;;;1.63;1.47;;;21.90;40.90;;;;;;5067515;28;20183;-77
2022/06/26 04:10:40;;;;;;;12.27;6.13;;;21.80;41.00;;;;;;5077522;28;20187;-76
2022/06/26 04:13:09;;;;;;;2.80;1.80;;;21.80;42.00;;;;;;5073117;28;20278;-77
2022/06/26 04:15:42;;;;;;;3.00;1.60;;;21.80;41.70;;;;;;5071909;28;20231;-77
2022/06/26 04:18:10;;;;;;;2.57;1.40;;;21.80;40.70;;;;;;5074259;28;20185;-77
2022/06/26 04:20:37;;;;;;;1.50;1.40;;;21.70;39.90;;;;;;5075440;28;20179;-76
2022/06/26 04:23:12;;;;;;;6.77;1.70;;;21.60;41.20;;;;;;5070030;28;20176;-75
2022/06/26 04:25:40;;;;;;;2.47;1.60;;;22.20;41.00;;;;;;5064876;28;20278;-75
2022/06/26 04:28:09;;;;;;;3.47;1.63;;;22.70;39.80;;;;;;5059687;28;20188;-76
2022/06/26 04:30:37;;;;;;;2.47;1.77;;;22.90;39.20;;;;;;5054139;28;20176;-75
2022/06/26 04:33:04;;;;;;;3.17;1.90;;;23.10;39.00;;;;;;5056578;28;20187;-75
2022/06/26 04:35:32;;;;;;;3.53;1.80;;;23.40;37.60;;;;;;5071239;28;21444;-76
2022/06/26 04:38:00;;;;;;;2.70;2.20;;;23.90;36.90;;;;;;5063214;28;20588;-75
2022/06/26 04:40:27;;;;;;;5.60;2.03;;;23.40;37.80;;;;;;5066077;28;20184;-78
2022/06/26 04:42:55;;;;;;;4.30;1.87;;;23.20;38.40;;;;;;5070875;28;20183;-76
2022/06/26 04:45:23;;;;;;;4.40;1.83;;;23.30;38.40;;;;;;5064820;28;20180;-76
2022/06/26 04:47:50;;;;;;;2.67;2.00;;;23.30;38.30;;;;;;5073547;28;20631;-75
2022/06/26 04:50:18;;;;;;;3.87;2.10;;;22.80;39.50;;;;;;5073076;28;20191;-76
2022/06/26 04:52:47;;;;;;;5.03;1.93;;;22.60;39.60;;;;;;5070965;28;20191;-77
2022/06/26 04:55:15;;;;;;;3.03;1.80;;;22.50;39.10;;;;;;5072085;28;20712;-76
2022/06/26 04:57:42;;;;;;;3.23;1.63;;;22.10;40.50;;;;;;5071856;28;20187;-75
2022/06/26 05:00:13;;;;;;;2.17;1.47;;;21.50;41.40;;;;;;5071201;28;20191;-75
2022/06/26 05:02:41;;;;;;;5.50;1.80;;;21.00;42.90;;;;;;5070189;28;20282;-76
2022/06/26 05:05:08;;;;;;;4.87;1.70;;;20.80;43.00;;;;;;5063181;28;20698;-76
2022/06/26 05:07:36;;;;;;;4.43;1.60;;;20.50;43.20;;;;;;5054493;28;20670;-77
2022/06/26 05:10:04;;;;;;;5.17;1.70;;;19.80;44.60;;;;;;5052331;28;20298;-76
2022/06/26 05:12:32;;;;;;;4.67;2.00;;;19.50;45.20;;;;;;5060369;28;20176;-75
2022/06/26 05:14:59;;;;;;;3.07;1.90;;;19.90;45.30;;;;;;5058404;28;20223;-75
2022/06/26 05:17:26;;;;;;;4.93;1.90;;;20.20;44.70;;;;;;5054410;28;20187;-75
2022/06/26 05:19:54;;;;;;;5.43;1.93;;;20.20;44.60;;;;;;5065173;28;20269;-76
2022/06/26 05:22:21;;;;;;;2.13;1.67;;;20.00;44.90;;;;;;5059153;28;20191;-75
2022/06/26 05:24:49;;;;;;;6.80;1.90;;;19.50;45.80;;;;;;5062490;28;20229;-75
2022/06/26 05:27:16;;;;;;;3.63;2.13;;;19.30;47.00;;;;;;5056371;28;20236;-77
2022/06/26 05:29:44;;;;;;;4.70;2.13;;;19.80;46.00;;;;;;5056169;28;20172;-75
2022/06/26 05:32:12;;;;;;;3.00;1.80;;;19.90;45.30;;;;;;5053881;28;20195;-76
2022/06/26 05:34:39;;;;;;;2.07;1.80;;;19.70;45.00;;;;;;5069356;28;20604;-76
2022/06/26 05:37:06;;;;;;;2.53;1.70;;;19.60;45.50;;;;;;5054049;28;20271;-76
2022/06/26 05:39:34;;;;;;;5.30;2.37;;;19.70;45.10;;;;;;5061861;28;20188;-77
2022/06/26 05:42:01;;;;;;;5.77;2.30;;;20.00;44.90;;;;;;5058959;28;20271;-76
2022/06/26 05:44:29;;;;;;;7.60;2.20;;;20.10;44.80;;;;;;5053714;28;20191;-74
2022/06/26 05:46:56;;;;;;;3.07;2.20;;;20.30;44.50;;;;;;5072516;28;20187;-75
2022/06/26 05:49:24;;;;;;;3.67;1.70;;;20.30;44.60;;;;;;5057735;28;20681;-75
2022/06/26 05:51:51;;;;;;;5.53;2.00;;;20.70;43.70;;;;;;5061877;28;20180;-76
2022/06/26 05:54:18;;;;;;;4.07;2.10;;;21.00;43.30;;;;;;5064831;28;20278;-74
2022/06/26 05:56:46;;;;;;;4.30;2.17;;;21.10;43.70;;;;;;5053549;28;20241;-74
2022/06/26 05:59:13;;;;;;;3.77;2.00;;;21.00;44.40;;;;;;5054455;28;20184;-73
2022/06/26 06:01:41;;;;;;;3.40;1.87;;;20.70;44.60;;;;;;5053500;28;20188;-75
2022/06/26 06:04:08;;;;;;;3.20;1.70;;;20.30;45.20;;;;;;5053008;28;20184;-77
2022/06/26 06:06:36;;;;;;;2.93;1.63;;;20.00;44.30;;;;;;5061956;28;20190;-73
2022/06/26 06:09:04;;;;;;;4.17;2.17;;;20.00;44.70;;;;;;5061602;28;20194;-74
2022/06/26 06:11:32;;;;;;;4.87;2.10;;;19.70;45.80;;;;;;5065163;28;20582;-74
2022/06/26 06:13:59;;;;;;;4.93;1.80;;;19.40;45.40;;;;;;5059698;28;20619;-74
2022/06/26 06:16:27;;;;;;;4.70;1.97;;;19.20;46.10;;;;;;5054391;28;20218;-74
2022/06/26 06:18:54;;;;;;;4.07;1.90;;;19.10;47.40;;;;;;5053301;28;20503;-74
2022/06/26 06:21:22;;;;;;;5.37;2.37;;;19.00;47.60;;;;;;5059081;28;20297;-73
2022/06/26 06:23:52;;;;;;;3.90;2.53;;;18.80;48.50;;;;;;5065572;28;20191;-74
2022/06/26 06:26:20;;;;;;;5.00;2.70;;;18.50;49.80;;;;;;5054129;28;20228;-74
2022/06/26 06:28:47;;;;;;;3.63;1.83;;;18.30;50.00;;;;;;5062555;28;20191;-74
2022/06/26 06:31:14;;;;;;;4.77;2.17;;;18.20;50.30;;;;;;5064454;28;20708;-75
2022/06/26 06:33:42;;;;;;;4.73;2.10;;;18.00;50.70;;;;;;5064504;28;20535;-74
2022/06/26 06:36:09;;;;;;;3.50;1.90;;;17.90;50.90;;;;;;5063921;28;20219;-74
2022/06/26 06:38:37;;;;;;;3.80;2.03;;;17.80;51.50;;;;;;5063259;28;20183;-74
2022/06/26 06:41:04;;;;;;;3.07;2.17;;;17.70;52.70;;;;;;5068258;28;20199;-74
2022/06/26 06:43:32;;;;;;;3.33;2.03;;;17.50;53.40;;;;;;5067344;28;20191;-75
2022/06/26 06:46:00;;;;;;;3.47;2.20;;;17.30;54.20;;;;;;5068016;28;20286;-75
2022/06/26 06:48:27;;;;;;;3.43;2.00;;;17.20;54.60;;;;;;5062344;28;20645;-74
2022/06/26 06:50:55;;;;;;;4.17;2.40;;;17.10;54.90;;;;;;5066941;28;20222;-76
2022/06/26 06:53:22;;;;;;;5.47;2.20;;;16.90;55.70;;;;;;5071444;28;20491;-75
2022/06/26 06:55:50;;;;;;;7.07;2.83;;;16.80;56.00;;;;;;5069146;28;20388;-75
2022/06/26 06:58:17;;;;;;;3.57;2.40;;;16.70;55.70;;;;;;5065241;28;20650;-75
2022/06/26 07:00:44;;;;;;;4.43;2.70;;;16.60;56.50;;;;;;5065953;28;20209;-75
2022/06/26 07:03:12;;;;;;;4.30;2.80;;;16.50;57.30;;;;;;5069501;28;20186;-73
2022/06/26 07:05:39;;;;;;;7.80;2.77;;;16.40;57.60;;;;;;5069857;28;20281;-73
2022/06/26 07:08:07;;;;;;;5.17;3.40;;;16.30;58.00;;;;;;5069189;28;20179;-74
2022/06/26 07:10:34;;;;;;;6.10;4.00;;;16.20;58.60;;;;;;5066826;28;20214;-74
2022/06/26 07:13:02;;;;;;;7.60;4.00;;;16.10;58.40;;;;;;5071668;28;20190;-75
2022/06/26 07:15:30;;;;;;;6.33;3.70;;;16.10;59.00;;;;;;5070731;28;20222;-73
2022/06/26 07:17:57;;;;;;;7.73;2.90;;;16.00;59.80;;;;;;5069366;28;20204;-74
2022/06/26 07:20:24;;;;;;;7.37;3.37;;;15.90;60.00;;;;;;5072647;28;20268;-75
2022/06/26 07:22:52;;;;;;;6.90;3.57;;;15.80;59.90;;;;;;5067629;28;20233;-74
2022/06/26 07:25:19;;;;;;;26.47;19.73;;;15.70;60.20;;;;;;5060674;28;20214;-75
2022/06/26 07:27:47;;;;;;;20.00;14.20;;;15.70;60.70;;;;;;5066310;28;20236;-75
2022/06/26 07:30:15;;;;;;;5.97;4.20;;;15.70;61.20;;;;;;5055858;28;20665;-74
2022/06/26 07:32:44;;;;;;;8.33;3.50;;;15.60;61.50;;;;;;5067273;28;20177;-75
2022/06/26 07:35:11;;;;;;;5.17;3.00;;;15.50;62.10;;;;;;5074922;28;20227;-72
2022/06/26 07:37:40;;;;;;;8.03;3.97;;;15.50;62.30;;;;;;5068946;28;20240;-74
2022/06/26 07:40:08;;;;;;;4.90;3.20;;;15.40;61.00;;;;;;5064463;28;20719;-74
2022/06/26 07:42:36;;;;;;;4.83;3.00;;;15.40;61.40;;;;;;5067338;28;20237;-74
2022/06/26 07:45:03;;;;;;;5.97;4.10;;;15.40;61.50;;;;;;5063942;28;20204;-74
2022/06/26 07:47:31;;;;;;;8.40;4.20;;;15.40;62.10;;;;;;5072918;28;20194;-74
2022/06/26 07:49:58;;;;;;;9.67;4.57;;;15.40;62.70;;;;;;5067599;28;20209;-74
2022/06/26 07:52:26;;;;;;;8.23;4.30;;;15.30;63.10;;;;;;5065481;28;20238;-75
2022/06/26 07:54:53;;;;;;;6.70;4.50;;;15.30;63.00;;;;;;5057916;28;20619;-75
2022/06/26 07:57:21;;;;;;;6.40;4.27;;;15.30;62.80;;;;;;5072092;28;20188;-75
2022/06/26 07:59:48;;;;;;;8.07;4.67;;;15.30;63.10;;;;;;5068409;28;20540;-76
2022/06/26 08:02:15;;;;;;;6.77;4.67;;;15.30;63.20;;;;;;5055681;28;20590;-75
2022/06/26 08:04:43;;;;;;;9.47;4.47;;;15.20;62.90;;;;;;5056108;28;20545;-74
2022/06/26 08:07:11;;;;;;;10.63;4.07;;;15.30;62.90;;;;;;5055900;28;20183;-74
2022/06/26 08:09:39;;;;;;;11.97;4.17;;;15.20;63.70;;;;;;5067345;28;20432;-74
2022/06/26 08:12:06;;;;;;;10.80;4.53;;;15.10;64.20;;;;;;5055656;28;20533;-74
2022/06/26 08:14:34;;;;;;;9.70;4.07;;;15.10;64.10;;;;;;5055676;28;20204;-73
2022/06/26 08:17:01;;;;;;;5.77;3.83;;;15.10;64.00;;;;;;5069343;28;20191;-75
2022/06/26 08:19:29;;;;;;;9.43;3.90;;;15.10;63.60;;;;;;5064933;28;20180;-75
2022/06/26 08:22:02;;;;;;;10.33;4.87;;;15.10;63.90;;;;;;5078510;28;20589;-75
2022/06/26 08:24:35;;;;;;;27.13;21.10;;;15.00;65.30;;;;;;5062012;28;20672;-75
2022/06/26 08:27:03;;;;;;;13.13;10.23;;;14.90;66.20;;;;;;5073321;28;20344;-73
2022/06/26 08:29:33;;;;;;;10.80;6.40;;;14.90;67.00;;;;;;5067227;28;20188;-75
2022/06/26 08:32:00;;;;;;;8.27;5.60;;;14.80;66.90;;;;;;5064709;28;20232;-73
2022/06/26 08:34:28;;;;;;;10.90;5.40;;;14.80;67.20;;;;;;5083310;28;20182;-75
2022/06/26 08:36:56;;;;;;;7.17;5.40;;;14.80;67.10;;;;;;5060464;28;20230;-75
2022/06/26 08:39:24;;;;;;;13.00;6.90;;;14.80;67.40;;;;;;5055205;28;20240;-73
2022/06/26 08:41:56;;;;;;;12.87;6.80;;;14.80;67.50;;;;;;5055023;28;20189;-75
2022/06/26 08:44:24;;;;;;;11.90;7.93;;;14.70;66.90;;;;;;5054973;28;20178;-75
2022/06/26 08:46:55;;;;;;;11.63;7.87;;;14.70;66.40;;;;;;5056948;28;20177;-74
2022/06/26 08:49:24;;;;;;;10.67;7.20;;;14.70;66.00;;;;;;5070030;28;20185;-75
2022/06/26 08:51:52;;;;;;;13.07;7.70;;;14.70;66.30;;;;;;5069789;28;20183;-75
2022/06/26 08:54:20;;;;;;;14.07;7.87;;;14.70;67.40;;;;;;5054761;28;20189;-75
2022/06/26 08:56:50;;;;;;;12.43;9.30;;;14.60;67.90;;;;;;5069622;28;20182;-73
2022/06/26 08:59:19;;;;;;;13.27;9.07;;;14.60;67.20;;;;;;5061459;28;20189;-74
2022/06/26 09:01:47;;;;;;;17.00;10.20;;;14.60;67.10;;;;;;5064757;28;20188;-75
2022/06/26 09:04:15;;;;;;;13.67;8.87;;;14.60;67.00;;;;;;5090154;28;20179;-75
2022/06/26 09:06:43;;;;;;;14.07;9.33;;;14.60;67.20;;;;;;5075556;28;20191;-74
2022/06/26 09:09:29;;;;;;;16.13;9.37;;;14.60;66.60;;;;;;5069447;28;20541;-74
2022/06/26 09:11:59;;;;;;;15.63;11.03;;;14.50;66.70;;;;;;5066607;28;20177;-74
2022/06/26 09:14:29;;;;;;;19.50;12.17;;;14.50;66.60;;;;;;5057450;28;20796;-74
2022/06/26 09:16:58;;;;;;;18.03;12.70;;;14.50;67.10;;;;;;5054452;28;20270;-74
2022/06/26 09:19:33;;;;;;;18.77;14.27;;;14.50;67.40;;;;;;5060180;28;20186;-75
2022/06/26 09:22:06;;;;;;;17.77;12.53;;;14.40;67.80;;;;;;5064306;28;20191;-72
2022/06/26 09:24:36;;;;;;;20.10;11.20;;;14.40;67.70;;;;;;5063948;28;20245;-73
2022/06/26 09:27:06;;;;;;;13.83;9.73;;;14.40;68.20;;;;;;5053922;28;20752;-73
2022/06/26 09:29:34;;;;;;;16.40;9.67;;;14.40;68.10;;;;;;5065737;28;20184;-73
2022/06/26 09:32:13;;;;;;;14.20;9.70;;;14.40;68.50;;;;;;5072061;28;20665;-75
2022/06/26 09:34:52;;;;;;;17.90;11.10;;;14.30;68.90;;;;;;5061868;28;20206;-74
2022/06/26 09:37:21;;;;;;;20.63;12.07;;;14.30;69.20;;;;;;5060502;28;20191;-74
2022/06/26 09:39:49;;;;;;;17.50;10.77;;;14.30;68.90;;;;;;5058416;28;20229;-75
2022/06/26 09:42:24;;;;;;;16.50;11.53;;;14.20;69.70;;;;;;5070409;28;20187;-73
2022/06/26 09:44:53;;;;;;;15.93;12.20;;;14.20;69.80;;;;;;5061719;28;20183;-74
2022/06/26 09:47:34;;;;;;;18.60;12.53;;;14.10;69.80;;;;;;5061692;28;20225;-74
2022/06/26 09:50:04;;;;;;;16.67;11.77;;;14.10;70.50;;;;;;5068780;28;20636;-73
2022/06/26 09:52:32;;;;;;;16.30;12.40;;;14.10;70.90;;;;;;5068379;28;20179;-74
2022/06/26 09:55:01;;;;;;;18.27;11.47;;;14.10;70.40;;;;;;5057910;28;20236;-73
2022/06/26 09:57:31;;;;;;;17.10;11.20;;;14.10;70.30;;;;;;5067925;28;20177;-73
2022/06/26 09:59:59;;;;;;;20.50;11.20;;;14.10;69.80;;;;;;5064887;28;20633;-73
2022/06/26 10:08:17;;;;;;;16.53;9.70;;;14.10;68.70;;;;;;5067034;28;20196;-74
2022/06/26 10:10:45;;;;;;;18.90;10.60;;;14.10;68.90;;;;;;5053384;28;20179;-74
2022/06/26 10:13:13;;;;;;;11.93;8.53;;;14.20;68.40;;;;;;5061826;28;20183;-74
2022/06/26 10:15:54;;;;;;;14.17;9.20;;;14.20;67.70;;;;;;5067156;28;20203;-74
2022/06/26 10:18:27;;;;;;;17.93;10.13;;;14.30;67.70;;;;;;5079243;28;20183;-74
2022/06/26 10:20:57;;;;;;;15.20;10.50;;;14.30;68.20;;;;;;5056328;28;20636;-74
2022/06/26 10:23:39;;;;;;;15.43;10.60;;;14.30;68.60;;;;;;5068118;28;20179;-74
2022/06/26 10:26:18;;;;;;;18.50;11.00;;;14.30;69.30;;;;;;5061010;28;20272;-74
2022/06/26 10:29:11;;;;;;;17.90;11.03;;;14.20;70.10;;;;;;5072739;28;20578;-74
2022/06/26 10:31:47;;;;;;;16.70;11.37;;;14.10;70.80;;;;;;5069680;28;20190;-74
2022/06/26 10:34:22;;;;;;;13.60;10.00;;;14.10;71.20;;;;;;5058525;28;20197;-74
2022/06/26 10:37:10;;;;;;;18.27;10.53;;;14.00;71.30;;;;;;5069729;28;20233;-74
2022/06/26 10:39:41;;;;;;;16.30;10.70;;;14.00;71.60;;;;;;5053256;28;20222;-74
2022/06/26 10:45:06;;;;;;;20.50;11.50;;;14.00;72.20;;;;;;5054981;28;20191;-74
2022/06/26 10:47:49;;;;;;;17.73;11.67;;;13.90;72.30;;;;;;5052879;28;20180;-74
2022/06/26 10:50:30;;;;;;;14.80;11.00;;;13.90;72.80;;;;;;5066729;28;20176;-74
2022/06/26 10:53:26;;;;;;;17.30;12.00;;;13.80;73.10;;;;;;5062774;28;20637;-73
2022/06/26 10:55:59;;;;;;;17.13;11.87;;;13.80;73.70;;;;;;5067925;28;20250;-74
2022/06/26 10:58:30;;;;;;;21.50;12.23;;;13.80;73.80;;;;;;5052487;28;20728;-74
2022/06/26 11:01:08;;;;;;;23.67;12.50;;;13.80;73.70;;;;;;5058053;28;20186;-74
2022/06/26 11:03:37;;;;;;;17.13;11.83;;;13.80;74.00;;;;;;5052428;28;20181;-74
2022/06/26 11:06:07;;;;;;;16.43;11.77;;;13.70;74.10;;;;;;5062507;28;20175;-74
2022/06/26 11:08:37;;;;;;;16.40;11.63;;;13.70;74.10;;;;;;5077835;28;20262;-74
2022/06/26 11:11:20;;;;;;;16.47;11.50;;;13.70;74.40;;;;;;5057816;28;20183;-74
2022/06/26 11:13:53;;;;;;;16.70;11.03;;;13.70;74.30;;;;;;5066999;28;20171;-74
2022/06/26 11:16:32;;;;;;;19.97;10.77;;;13.70;74.10;;;;;;5073910;28;20219;-74
2022/06/26 11:19:03;;;;;;;16.17;10.40;;;13.70;73.80;;;;;;5087133;28;20186;-74
2022/06/26 11:21:30;;;;;;;16.40;11.37;;;13.70;73.70;;;;;;5068639;28;20186;-74
2022/06/26 11:23:59;;;;;;;21.07;11.50;;;13.70;73.40;;;;;;5069816;28;20262;-74
2022/06/26 11:26:27;;;;;;;17.27;11.53;;;13.70;73.30;;;;;;5071242;28;20233;-74
2022/06/26 11:28:58;;;;;;;19.27;12.33;;;13.70;73.60;;;;;;5064636;28;20172;-74
2022/06/26 11:31:30;;;;;;;16.97;11.47;;;13.70;74.10;;;;;;5063038;28;20224;-74
2022/06/26 11:34:15;;;;;;;20.60;11.80;;;13.60;74.30;;;;;;5071097;28;20176;-74
2022/06/26 11:36:57;;;;;;;15.50;10.63;;;13.60;74.20;;;;;;5069529;28;20207;-74
2022/06/26 11:39:36;;;;;;;17.43;10.87;;;13.60;73.90;;;;;;5060368;28;20187;-74
2022/06/26 11:42:18;;;;;;;18.23;10.50;;;13.70;74.00;;;;;;5071082;28;20179;-74
2022/06/26 11:44:50;;;;;;;18.00;10.43;;;13.70;73.90;;;;;;5069485;28;20229;-74
2022/06/26 11:47:18;;;;;;;17.70;10.43;;;13.70;73.90;;;;;;5068960;28;20642;-74
2022/06/26 11:49:46;;;;;;;16.27;10.03;;;13.70;73.70;;;;;;5064821;28;20176;-73
2022/06/26 11:52:14;;;;;;;10.30;7.53;;;13.80;73.80;;;;;;5061281;28;20566;-74
2022/06/26 11:54:43;;;;;;;15.07;9.70;;;13.80;73.90;;;;;;5052610;28;20207;-74
2022/06/26 11:57:12;;;;;;;17.97;10.47;;;13.80;73.80;;;;;;5070045;28;20183;-74
2022/06/26 11:59:46;;;;;;;19.07;9.97;;;13.80;74.10;;;;;;5065625;28;20218;-74
2022/06/26 12:02:26;;;;;;;15.97;9.63;;;13.80;74.10;;;;;;5061406;28;20214;-73
2022/06/26 12:05:01;;;;;;;15.60;9.63;;;13.80;74.10;;;;;;5055657;28;20258;-74
2022/06/26 12:07:41;;;;;;;17.57;10.70;;;13.80;74.20;;;;;;5065584;28;20182;-73
2022/06/26 12:10:10;;;;;;;16.63;10.03;;;13.80;74.60;;;;;;5057570;28;20258;-74
2022/06/26 12:12:48;;;;;;;15.33;9.97;;;13.70;74.80;;;;;;5060918;28;20180;-74
2022/06/26 12:15:16;;;;;;;16.60;11.40;;;13.70;74.90;;;;;;5054954;28;20573;-74
2022/06/26 12:17:53;;;;;;;20.50;11.53;;;13.70;75.00;;;;;;5059333;28;20188;-74
2022/06/26 12:20:21;;;;;;;18.37;10.97;;;13.60;74.90;;;;;;5055688;28;20581;-74
2022/06/26 12:22:54;;;;;;;15.13;10.53;;;13.60;75.20;;;;;;5059437;28;20651;-73
2022/06/26 12:25:33;;;;;;;13.93;9.73;;;13.60;75.00;;;;;;5076169;28;20190;-74
2022/06/26 12:28:01;;;;;;;14.07;9.13;;;13.50;75.20;;;;;;5056330;28;20192;-74
2022/06/26 12:30:33;;;;;;;13.40;9.03;;;13.50;75.30;;;;;;5062916;28;20279;-73
2022/06/26 12:33:04;;;;;;;13.17;9.23;;;13.50;75.60;;;;;;5070470;28;20213;-73
2022/06/26 12:35:32;;;;;;;14.33;9.53;;;13.50;75.50;;;;;;5072335;28;20218;-74
2022/06/26 12:38:00;;;;;;;17.60;10.17;;;13.40;75.60;;;;;;5070849;28;20601;-73
2022/06/26 12:40:29;;;;;;;16.30;10.30;;;13.40;75.60;;;;;;5077574;28;20266;-74
2022/06/26 12:42:56;;;;;;;15.03;10.20;;;13.40;75.80;;;;;;5069066;28;20180;-74
2022/06/26 12:45:24;;;;;;;15.27;10.37;;;13.40;75.80;;;;;;5066512;28;20179;-74
2022/06/26 12:47:51;;;;;;;14.93;8.70;;;13.30;75.90;;;;;;5073906;28;20175;-74
2022/06/26 12:50:18;;;;;;;17.63;9.13;;;13.30;75.60;;;;;;5075856;28;20584;-73
2022/06/26 12:52:46;;;;;;;19.07;9.97;;;13.30;75.40;;;;;;5071489;28;20600;-73
2022/06/26 12:55:14;;;;;;;15.77;9.57;;;13.20;75.40;;;;;;5070789;28;20733;-73
2022/06/26 12:57:41;;;;;;;13.77;8.93;;;13.30;75.80;;;;;;5061266;28;20194;-73
2022/06/26 13:00:09;;;;;;;13.07;8.93;;;13.30;75.90;;;;;;5068096;28;20798;-73
2022/06/26 13:02:37;;;;;;;13.00;8.93;;;13.30;76.10;;;;;;5073384;28;20194;-73
2022/06/26 13:05:04;;;;;;;13.43;9.10;;;13.30;76.00;;;;;;5073437;28;20180;-73